Time;durP1;ratioP1;P1;durP2;ratioP2;P2;SDS_P1;SDS_P2;PMS_P1;PMS_P2;Temp;Humidity;BMP_temperature;BMP_pressure;BME280_temperature;BME280_humidity;BME280_pressure;Samples;Min_cycle;Max_cycle;Signal;HPM_P1;HPM_P2
2021/06/06 00:01:03;;;;;;;1.73;1.40;;;13.40;99.90;;;;;;5011493;28;20030;-74
2021/06/06 00:03:36;;;;;;;2.28;1.50;;;13.40;99.90;;;;;;5013922;28;20030;-74
2021/06/06 00:06:21;;;;;;;2.58;1.48;;;13.40;99.90;;;;;;5012901;28;20056;-74
2021/06/06 00:08:47;;;;;;;4.90;1.55;;;13.40;99.90;;;;;;5013649;28;20176;-75
2021/06/06 00:11:29;;;;;;;3.13;1.60;;;13.40;99.90;;;;;;5011737;28;20430;-74
2021/06/06 00:13:57;;;;;;;1.70;1.30;;;13.40;99.90;;;;;;5013268;28;20034;-74
2021/06/06 00:16:30;;;;;;;3.97;1.65;;;13.40;99.90;;;;;;5010123;28;20337;-74
2021/06/06 00:18:56;;;;;;;3.00;1.52;;;13.40;99.90;;;;;;5002904;28;20026;-74
2021/06/06 00:21:24;;;;;;;3.15;1.77;;;13.40;99.90;;;;;;5013249;28;20030;-74
2021/06/06 00:23:50;;;;;;;4.15;1.60;;;13.40;99.90;;;;;;5012498;28;20058;-74
2021/06/06 00:26:17;;;;;;;2.72;1.58;;;13.40;99.90;;;;;;5029711;28;20041;-74
2021/06/06 00:28:43;;;;;;;4.57;1.55;;;13.40;99.90;;;;;;5015528;28;20029;-75
2021/06/06 00:31:09;;;;;;;1.67;1.33;;;13.40;99.90;;;;;;5014564;28;20847;-74
2021/06/06 00:33:36;;;;;;;3.60;1.85;;;13.30;99.90;;;;;;5024709;28;20116;-74
2021/06/06 00:36:03;;;;;;;2.30;1.40;;;13.30;99.90;;;;;;5030084;28;20022;-74
2021/06/06 00:38:29;;;;;;;2.22;1.40;;;13.30;99.90;;;;;;5025137;28;20034;-74
2021/06/06 00:40:57;;;;;;;3.83;1.75;;;13.30;99.90;;;;;;5029025;28;20469;-74
2021/06/06 00:43:23;;;;;;;2.53;1.42;;;13.40;99.90;;;;;;5034078;28;20013;-74
2021/06/06 00:45:48;;;;;;;2.65;1.48;;;13.30;99.90;;;;;;5033785;28;20056;-74
2021/06/06 00:48:14;;;;;;;3.58;1.52;;;13.30;99.90;;;;;;5007498;28;20060;-74
2021/06/06 00:50:44;;;;;;;2.30;1.50;;;13.30;99.90;;;;;;5023771;28;20026;-74
2021/06/06 00:53:20;;;;;;;3.50;1.50;;;13.30;99.90;;;;;;5028865;28;20105;-74
2021/06/06 00:55:45;;;;;;;2.13;1.45;;;13.30;99.90;;;;;;5023187;28;20029;-75
2021/06/06 00:58:13;;;;;;;2.33;1.30;;;13.30;99.90;;;;;;5013592;28;20374;-74
2021/06/06 01:00:42;;;;;;;2.67;1.40;;;13.20;99.90;;;;;;5021235;28;20104;-74
2021/06/06 01:03:09;;;;;;;2.33;1.30;;;13.30;99.90;;;;;;5022237;28;20022;-74
2021/06/06 01:05:43;;;;;;;2.22;1.50;;;13.30;99.90;;;;;;5032579;28;20478;-74
2021/06/06 01:08:12;;;;;;;1.58;1.25;;;13.40;99.90;;;;;;5031749;28;20045;-75
2021/06/06 01:10:38;;;;;;;1.92;1.40;;;13.40;99.90;;;;;;5015608;28;20053;-75
2021/06/06 01:13:15;;;;;;;2.63;1.30;;;13.30;99.90;;;;;;5016158;28;20455;-74
2021/06/06 01:15:43;;;;;;;4.30;1.20;;;13.30;99.90;;;;;;5006215;28;20109;-75
2021/06/06 01:18:29;;;;;;;5.00;1.33;;;13.30;99.90;;;;;;5031857;28;20029;-75
2021/06/06 01:21:00;;;;;;;5.72;1.55;;;13.20;99.90;;;;;;5011475;28;20029;-74
2021/06/06 01:23:54;;;;;;;4.10;1.60;;;13.20;99.90;;;;;;5032575;28;20017;-75
2021/06/06 01:26:25;;;;;;;3.28;1.40;;;13.30;99.90;;;;;;5032642;28;20047;-74
2021/06/06 01:29:29;;;;;;;2.60;1.52;;;13.30;99.90;;;;;;5032260;28;20135;-75
2021/06/06 01:32:03;;;;;;;2.28;1.30;;;13.30;99.90;;;;;;5011833;28;20037;-74
2021/06/06 01:34:31;;;;;;;2.75;1.95;;;13.30;99.90;;;;;;5014729;28;20055;-75
2021/06/06 01:37:02;;;;;;;2.15;1.60;;;13.30;99.90;;;;;;5029797;28;20521;-75
2021/06/06 01:39:47;;;;;;;2.05;1.65;;;13.30;99.90;;;;;;5027319;28;20076;-75
2021/06/06 01:42:27;;;;;;;1.92;1.48;;;13.30;99.90;;;;;;5026433;28;20029;-75
2021/06/06 01:44:57;;;;;;;2.63;1.55;;;13.30;99.90;;;;;;5000513;28;20037;-75
2021/06/06 01:47:26;;;;;;;2.63;1.55;;;13.30;99.90;;;;;;5012619;28;20022;-74
2021/06/06 01:50:00;;;;;;;2.17;1.35;;;13.30;99.90;;;;;;5020074;28;20048;-74
2021/06/06 01:52:30;;;;;;;4.78;1.50;;;13.30;99.90;;;;;;5013819;28;20061;-75
2021/06/06 01:54:57;;;;;;;3.58;1.50;;;13.40;99.90;;;;;;5019025;28;20417;-74
2021/06/06 01:57:25;;;;;;;4.25;1.58;;;13.40;99.90;;;;;;5011784;28;20507;-74
2021/06/06 01:59:53;;;;;;;3.25;1.67;;;13.30;99.90;;;;;;5030156;28;20076;-74
2021/06/06 02:02:20;;;;;;;2.00;1.50;;;13.30;99.90;;;;;;5030080;28;20032;-74
2021/06/06 02:04:47;;;;;;;1.67;1.38;;;13.40;99.90;;;;;;5027655;28;20079;-74
2021/06/06 02:07:18;;;;;;;3.17;1.30;;;13.30;99.90;;;;;;4999767;28;20049;-75
2021/06/06 02:10:06;;;;;;;3.67;1.27;;;13.30;99.90;;;;;;5023213;28;20089;-75
2021/06/06 02:12:33;;;;;;;2.00;1.50;;;13.30;99.90;;;;;;5014176;28;20036;-74
2021/06/06 02:15:01;;;;;;;1.90;1.63;;;13.30;99.90;;;;;;5026821;28;20030;-74
2021/06/06 02:17:30;;;;;;;2.90;1.60;;;13.30;99.90;;;;;;5020531;28;20108;-75
2021/06/06 02:19:58;;;;;;;2.75;1.67;;;13.30;99.90;;;;;;5030399;28;20021;-74
2021/06/06 02:22:26;;;;;;;1.75;1.42;;;13.30;99.90;;;;;;5030775;28;20072;-74
2021/06/06 02:24:53;;;;;;;1.48;1.25;;;13.20;99.90;;;;;;5026963;28;20211;-74
2021/06/06 02:27:29;;;;;;;4.32;1.63;;;13.30;99.90;;;;;;5017937;28;20029;-74
2021/06/06 02:30:03;;;;;;;2.42;1.48;;;13.30;99.90;;;;;;5029196;28;20030;-74
2021/06/06 02:32:39;;;;;;;1.90;1.48;;;13.30;99.90;;;;;;5018766;28;20107;-74
2021/06/06 02:35:11;;;;;;;3.05;1.40;;;13.30;99.90;;;;;;5023944;28;20040;-75
2021/06/06 02:37:46;;;;;;;1.38;1.20;;;13.30;99.90;;;;;;5030890;28;20017;-74
2021/06/06 02:40:32;;;;;;;;;;;13.40;99.90;;;;;;5031213;28;20037;-74
2021/06/06 02:43:11;;;;;;;4.45;1.20;;;13.30;99.90;;;;;;5017219;28;19905;-74
2021/06/06 02:45:38;;;;;;;2.10;1.30;;;13.30;99.90;;;;;;5028396;28;20042;-74
2021/06/06 02:48:12;;;;;;;3.50;1.27;;;13.30;99.90;;;;;;5029536;28;20025;-74
2021/06/06 02:50:41;;;;;;;1.65;1.30;;;13.30;99.90;;;;;;5031200;28;20111;-74
2021/06/06 02:53:15;;;;;;;2.35;1.50;;;13.40;99.90;;;;;;5027999;28;20053;-74
2021/06/06 02:55:48;;;;;;;1.55;1.30;;;13.30;99.90;;;;;;5024123;28;20100;-74
2021/06/06 02:58:35;;;;;;;3.95;1.40;;;13.30;99.90;;;;;;5029735;28;20108;-74
2021/06/06 03:01:11;;;;;;;2.42;1.40;;;13.30;99.90;;;;;;5029871;28;20105;-75
2021/06/06 03:03:38;;;;;;;2.90;1.60;;;13.30;99.90;;;;;;5011381;28;20028;-74
2021/06/06 03:06:09;;;;;;;3.90;1.80;;;13.30;99.90;;;;;;5025312;28;20378;-74
2021/06/06 03:08:35;;;;;;;2.28;1.20;;;13.40;99.90;;;;;;5031323;28;20033;-74
2021/06/06 03:11:06;;;;;;;2.63;1.50;;;13.30;99.90;;;;;;5019483;28;20022;-74
2021/06/06 03:13:36;;;;;;;4.22;1.70;;;13.30;99.90;;;;;;5004789;28;20038;-74
2021/06/06 03:16:03;;;;;;;2.42;1.30;;;13.30;99.90;;;;;;5023568;28;20470;-74
2021/06/06 03:18:34;;;;;;;2.10;1.35;;;13.30;99.90;;;;;;5030968;28;20473;-74
2021/06/06 03:21:17;;;;;;;4.15;1.70;;;13.40;99.90;;;;;;5020316;28;20022;-74
2021/06/06 03:23:50;;;;;;;3.03;1.60;;;13.40;99.90;;;;;;5015498;28;20030;-74
2021/06/06 03:26:16;;;;;;;2.97;1.50;;;13.40;99.90;;;;;;5023321;28;20083;-74
2021/06/06 03:28:43;;;;;;;1.95;1.42;;;13.40;99.90;;;;;;5029951;28;20112;-74
2021/06/06 03:31:37;;;;;;;4.30;1.40;;;13.30;99.90;;;;;;5030582;28;20030;-74
2021/06/06 03:34:05;;;;;;;5.32;1.40;;;13.30;99.90;;;;;;5012581;28;20513;-74
2021/06/06 03:36:34;;;;;;;2.00;1.65;;;13.30;99.90;;;;;;5013492;28;20030;-74
2021/06/06 03:39:02;;;;;;;2.33;1.50;;;13.30;99.90;;;;;;5033682;28;20079;-74
2021/06/06 03:41:28;;;;;;;3.03;1.70;;;13.30;99.90;;;;;;5033945;28;20109;-74
2021/06/06 03:43:55;;;;;;;2.88;1.58;;;13.30;99.90;;;;;;5033704;28;20104;-74
2021/06/06 03:46:23;;;;;;;2.55;1.55;;;13.30;99.90;;;;;;5032610;28;20024;-74
2021/06/06 03:48:49;;;;;;;3.03;1.50;;;13.20;99.90;;;;;;5025955;28;20033;-73
2021/06/06 03:51:16;;;;;;;2.13;1.50;;;13.20;99.90;;;;;;5019454;28;20367;-73
2021/06/06 03:53:41;;;;;;;3.03;1.67;;;13.20;99.90;;;;;;5033752;28;20036;-74
2021/06/06 03:56:08;;;;;;;2.55;1.30;;;13.20;99.90;;;;;;5033325;28;20475;-74
2021/06/06 03:58:35;;;;;;;2.42;1.60;;;13.20;99.90;;;;;;5025101;28;20022;-74
2021/06/06 04:01:01;;;;;;;3.75;1.65;;;13.20;99.90;;;;;;5021686;28;20052;-74
2021/06/06 04:03:27;;;;;;;2.97;1.80;;;13.20;99.90;;;;;;5023299;28;20132;-73
2021/06/06 04:05:53;;;;;;;2.30;1.50;;;13.20;99.90;;;;;;5025917;28;20485;-74
2021/06/06 04:08:19;;;;;;;1.83;1.42;;;13.20;99.90;;;;;;5018982;28;20100;-74
2021/06/06 04:10:46;;;;;;;2.20;1.33;;;13.30;99.90;;;;;;5014578;28;20451;-74
2021/06/06 04:13:12;;;;;;;2.63;1.70;;;13.20;99.90;;;;;;5030093;28;20447;-73
2021/06/06 04:15:39;;;;;;;3.38;1.92;;;13.30;99.90;;;;;;5033038;28;20100;-74
2021/06/06 04:18:08;;;;;;;3.13;1.80;;;13.30;99.90;;;;;;5019125;28;20113;-74
2021/06/06 04:20:34;;;;;;;4.20;1.65;;;13.30;99.90;;;;;;5027915;28;20790;-74
2021/06/06 04:23:00;;;;;;;3.30;1.60;;;13.30;99.90;;;;;;5023271;28;20084;-74
2021/06/06 04:25:25;;;;;;;2.88;1.52;;;13.30;99.90;;;;;;5032277;28;20029;-73
2021/06/06 04:27:51;;;;;;;2.50;1.80;;;13.30;99.90;;;;;;5033011;28;20048;-74
2021/06/06 04:30:16;;;;;;;2.83;1.48;;;13.30;99.90;;;;;;5032485;28;20060;-74
2021/06/06 04:32:42;;;;;;;2.65;1.40;;;13.30;99.90;;;;;;5018551;28;20045;-74
2021/06/06 04:35:08;;;;;;;1.90;1.60;;;13.30;99.90;;;;;;5032463;28;20144;-74
2021/06/06 04:37:34;;;;;;;2.25;1.63;;;13.30;99.90;;;;;;5031260;28;20017;-73
2021/06/06 04:40:00;;;;;;;2.47;1.60;;;13.30;99.90;;;;;;5014146;28;20029;-74
2021/06/06 04:42:25;;;;;;;3.33;1.45;;;13.40;99.90;;;;;;5022846;28;20148;-74
2021/06/06 04:44:51;;;;;;;3.58;1.75;;;13.40;99.90;;;;;;5032209;28;20037;-74
2021/06/06 04:47:18;;;;;;;2.45;1.30;;;13.40;99.90;;;;;;5032326;28;20025;-74
2021/06/06 04:49:44;;;;;;;3.35;1.65;;;13.40;99.90;;;;;;5012977;28;20030;-74
2021/06/06 04:52:12;;;;;;;2.67;1.80;;;13.40;99.90;;;;;;5023868;28;20045;-74
2021/06/06 04:54:38;;;;;;;3.05;1.50;;;13.40;99.90;;;;;;5014223;28;20022;-73
2021/06/06 04:57:06;;;;;;;2.35;1.75;;;13.50;99.90;;;;;;5022471;28;20028;-74
2021/06/06 04:59:35;;;;;;;3.95;1.60;;;13.50;99.90;;;;;;5032062;28;20021;-74
2021/06/06 05:02:02;;;;;;;1.70;1.38;;;13.50;99.90;;;;;;5016802;28;20356;-74
2021/06/06 05:04:28;;;;;;;1.83;1.27;;;13.50;99.90;;;;;;5024600;28;20045;-73
2021/06/06 05:06:53;;;;;;;2.03;1.50;;;13.50;99.90;;;;;;5020348;28;20038;-74
2021/06/06 05:09:19;;;;;;;2.28;1.63;;;13.50;99.90;;;;;;5014007;28;20073;-79
2021/06/06 05:11:44;;;;;;;2.22;1.48;;;13.60;99.90;;;;;;5016123;28;20481;-74
2021/06/06 05:14:10;;;;;;;2.42;1.50;;;13.60;99.90;;;;;;5009726;28;20053;-74
2021/06/06 05:16:35;;;;;;;2.17;1.73;;;13.60;99.90;;;;;;5015010;28;20026;-74
2021/06/06 05:19:01;;;;;;;1.35;1.15;;;13.60;99.90;;;;;;5021774;28;20022;-74
2021/06/06 05:21:29;;;;;;;3.63;1.55;;;13.60;99.90;;;;;;5015462;28;20130;-74
2021/06/06 05:23:55;;;;;;;2.63;1.60;;;13.70;99.90;;;;;;5003689;28;20105;-74
2021/06/06 05:26:20;;;;;;;3.40;1.60;;;13.80;99.90;;;;;;5010867;28;20715;-74
2021/06/06 05:28:47;;;;;;;1.65;1.20;;;13.80;99.90;;;;;;5009993;28;20058;-74
2021/06/06 05:31:14;;;;;;;1.63;1.20;;;13.80;99.90;;;;;;5010509;28;20033;-74
2021/06/06 05:33:40;;;;;;;1.95;1.20;;;13.80;99.90;;;;;;5008048;28;20018;-74
2021/06/06 05:36:06;;;;;;;1.48;1.15;;;13.90;99.90;;;;;;5012208;28;20092;-74
2021/06/06 05:38:33;;;;;;;2.25;1.20;;;13.80;99.90;;;;;;5010227;28;20014;-74
2021/06/06 05:41:00;;;;;;;2.17;1.35;;;13.80;99.90;;;;;;5011441;28;20467;-74
2021/06/06 05:43:26;;;;;;;1.10;1.00;;;13.80;99.90;;;;;;5008974;28;20339;-74
2021/06/06 05:45:53;;;;;;;2.15;1.20;;;13.90;99.90;;;;;;5009318;28;20567;-79
2021/06/06 05:48:19;;;;;;;1.83;1.05;;;13.90;99.90;;;;;;5005371;28;20375;-76
2021/06/06 05:50:47;;;;;;;2.72;1.00;;;14.00;99.90;;;;;;4998915;28;20026;-76
2021/06/06 05:53:13;;;;;;;2.88;1.10;;;14.00;99.90;;;;;;5001098;28;20467;-76
2021/06/06 05:55:39;;;;;;;2.15;1.00;;;14.00;99.90;;;;;;4996079;28;20030;-77
2021/06/06 05:58:05;;;;;;;0.80;0.80;;;14.00;99.90;;;;;;4995708;28;20467;-76
2021/06/06 06:00:43;;;;;;;3.63;1.23;;;14.00;99.90;;;;;;5007481;28;20044;-76
2021/06/06 06:03:09;;;;;;;2.35;1.00;;;14.00;99.90;;;;;;5011891;28;20014;-76
2021/06/06 06:05:35;;;;;;;2.75;1.13;;;14.00;99.90;;;;;;5010190;28;20026;-76
2021/06/06 06:08:32;;;;;;;2.22;1.13;;;14.00;99.90;;;;;;5008734;28;20076;-77
2021/06/06 06:10:58;;;;;;;2.00;1.00;;;14.10;99.90;;;;;;5008090;28;20495;-77
2021/06/06 06:13:27;;;;;;;2.58;1.10;;;14.10;99.90;;;;;;5012697;28;20033;-80
2021/06/06 06:15:54;;;;;;;1.55;1.00;;;14.10;99.90;;;;;;5018616;28;20024;-78
2021/06/06 06:18:21;;;;;;;3.35;0.98;;;14.10;99.90;;;;;;5017054;28;20033;-78
2021/06/06 06:20:47;;;;;;;2.90;1.10;;;14.10;99.90;;;;;;5012102;28;20092;-78
2021/06/06 06:23:13;;;;;;;1.35;0.93;;;14.10;99.90;;;;;;5011330;28;20800;-83
2021/06/06 06:25:38;;;;;;;2.78;0.77;;;14.20;99.90;;;;;;5008877;28;20041;-78
2021/06/06 06:28:05;;;;;;;1.05;0.75;;;14.20;99.90;;;;;;5011143;28;20382;-78
2021/06/06 06:30:34;;;;;;;1.02;0.90;;;14.20;99.90;;;;;;5013283;28;20383;-78
2021/06/06 06:33:00;;;;;;;1.90;1.17;;;14.20;99.90;;;;;;5013517;28;20050;-77
2021/06/06 06:35:28;;;;;;;1.25;0.80;;;14.20;99.90;;;;;;5013330;28;20116;-77
2021/06/06 06:37:55;;;;;;;1.98;0.90;;;14.20;99.90;;;;;;5011309;28;20025;-76
2021/06/06 06:40:22;;;;;;;2.33;1.00;;;14.20;99.90;;;;;;5012741;28;20022;-76
2021/06/06 06:42:49;;;;;;;2.65;0.90;;;14.20;99.90;;;;;;5012672;28;20017;-76
2021/06/06 06:45:20;;;;;;;2.80;0.85;;;14.20;99.90;;;;;;5012762;28;20026;-76
2021/06/06 06:47:46;;;;;;;1.70;0.80;;;14.20;99.90;;;;;;5011469;28;20040;-76
2021/06/06 06:50:13;;;;;;;2.35;0.90;;;14.20;99.90;;;;;;5011832;28;20037;-76
2021/06/06 06:52:39;;;;;;;1.73;0.80;;;14.20;99.90;;;;;;5012101;28;20037;-76
2021/06/06 06:55:08;;;;;;;0.70;0.60;;;14.20;99.90;;;;;;5012629;28;20033;-76
2021/06/06 06:57:34;;;;;;;3.63;1.30;;;14.30;99.90;;;;;;5011840;28;20146;-76
2021/06/06 07:00:00;;;;;;;2.33;1.02;;;14.20;99.90;;;;;;5010954;28;20046;-76
2021/06/06 07:02:27;;;;;;;2.80;0.95;;;14.20;99.90;;;;;;5011134;28;20026;-76
2021/06/06 07:04:53;;;;;;;2.10;0.85;;;14.30;99.90;;;;;;5025339;28;20546;-76
2021/06/06 07:07:19;;;;;;;3.50;0.98;;;14.30;99.90;;;;;;5026218;28;20113;-76
2021/06/06 07:09:45;;;;;;;1.48;0.85;;;14.30;99.90;;;;;;5019666;28;20371;-76
2021/06/06 07:12:11;;;;;;;1.92;1.00;;;14.30;99.90;;;;;;5016399;28;20021;-76
2021/06/06 07:14:36;;;;;;;2.00;0.77;;;14.40;99.90;;;;;;5015609;28;20030;-75
2021/06/06 07:17:03;;;;;;;1.50;0.60;;;14.40;99.90;;;;;;5015763;28;20029;-76
2021/06/06 07:19:28;;;;;;;1.73;0.85;;;14.40;99.90;;;;;;5015825;28;20356;-76
2021/06/06 07:21:54;;;;;;;1.48;0.90;;;14.40;99.90;;;;;;5014934;28;20014;-78
2021/06/06 07:24:20;;;;;;;2.75;0.80;;;14.40;99.90;;;;;;5010283;28;20018;-77
2021/06/06 07:26:49;;;;;;;2.25;0.70;;;14.40;99.90;;;;;;5021022;28;20029;-76
2021/06/06 07:29:18;;;;;;;1.48;0.80;;;14.40;99.90;;;;;;5015388;28;20018;-85
2021/06/06 07:31:48;;;;;;;1.55;0.80;;;14.40;99.90;;;;;;5014059;28;20061;-78
2021/06/06 07:34:15;;;;;;;1.50;0.70;;;14.30;99.90;;;;;;5015605;28;20026;-79
2021/06/06 07:36:41;;;;;;;1.35;0.70;;;14.40;99.90;;;;;;5012382;28;20095;-79
2021/06/06 07:39:07;;;;;;;1.38;0.80;;;14.50;99.90;;;;;;5011874;28;20022;-79
2021/06/06 07:41:33;;;;;;;1.00;0.80;;;14.50;99.90;;;;;;5008616;28;20059;-79
2021/06/06 07:43:58;;;;;;;1.42;0.70;;;14.60;99.90;;;;;;5008319;28;20025;-77
2021/06/06 07:46:25;;;;;;;1.05;0.93;;;14.60;99.90;;;;;;5005802;28;20061;-78
2021/06/06 07:48:51;;;;;;;1.02;0.70;;;14.60;99.90;;;;;;5020097;28;20060;-77
2021/06/06 07:51:17;;;;;;;1.35;0.70;;;14.60;99.90;;;;;;5010590;28;20030;-78
2021/06/06 07:53:43;;;;;;;1.02;0.90;;;14.70;99.90;;;;;;5008856;28;20032;-78
2021/06/06 07:56:08;;;;;;;1.67;0.80;;;14.60;99.90;;;;;;5010336;28;20117;-77
2021/06/06 07:58:36;;;;;;;0.80;0.77;;;14.60;99.90;;;;;;5007237;28;20076;-77
2021/06/06 08:01:04;;;;;;;2.53;1.00;;;14.70;99.90;;;;;;5008278;28;20029;-78
2021/06/06 08:03:30;;;;;;;1.95;0.80;;;14.70;99.90;;;;;;5008595;28;20030;-75
2021/06/06 08:06:00;;;;;;;1.60;0.90;;;14.80;99.90;;;;;;5012743;28;20497;-75
2021/06/06 08:08:26;;;;;;;2.55;0.90;;;14.70;99.90;;;;;;5002443;28;20030;-75
2021/06/06 08:10:56;;;;;;;1.88;1.23;;;14.70;99.90;;;;;;5016974;28;20420;-75
2021/06/06 08:13:22;;;;;;;1.77;1.05;;;14.80;99.90;;;;;;5013003;28;20037;-75
2021/06/06 08:15:48;;;;;;;2.80;1.20;;;14.80;99.90;;;;;;5016229;28;20071;-77
2021/06/06 08:18:20;;;;;;;1.98;0.80;;;14.90;99.90;;;;;;5010960;28;20021;-78
2021/06/06 08:20:51;;;;;;;3.45;0.90;;;14.90;99.90;;;;;;5003977;28;20021;-77
2021/06/06 08:23:17;;;;;;;2.25;1.02;;;15.00;99.90;;;;;;5001887;28;20036;-72
2021/06/06 08:25:44;;;;;;;0.98;0.73;;;15.00;99.90;;;;;;5012046;28;20132;-77
2021/06/06 08:28:11;;;;;;;1.88;1.20;;;15.00;99.90;;;;;;5007106;28;20058;-77
2021/06/06 08:30:49;;;;;;;0.68;0.68;;;15.00;99.90;;;;;;5011427;28;20038;-77
2021/06/06 08:33:16;;;;;;;2.08;0.95;;;15.00;99.90;;;;;;5010998;28;20088;-77
2021/06/06 08:35:42;;;;;;;2.47;1.15;;;15.10;99.90;;;;;;5004063;28;20030;-78
2021/06/06 08:38:08;;;;;;;0.80;0.80;;;15.10;99.90;;;;;;5007584;28;20036;-76
2021/06/06 08:40:47;;;;;;;1.10;0.80;;;15.10;99.90;;;;;;5011725;28;20068;-76
2021/06/06 08:43:13;;;;;;;2.90;0.90;;;15.20;99.90;;;;;;5018573;28;20076;-76
2021/06/06 08:45:49;;;;;;;1.67;0.68;;;15.40;99.90;;;;;;5028172;28;20029;-76
2021/06/06 08:48:18;;;;;;;1.17;0.70;;;15.40;99.90;;;;;;5014682;28;20041;-76
2021/06/06 08:50:53;;;;;;;1.40;0.82;;;15.50;99.90;;;;;;5015280;28;20018;-76
2021/06/06 08:53:40;;;;;;;1.00;0.80;;;15.40;99.90;;;;;;5001947;28;20042;-77
2021/06/06 08:56:18;;;;;;;0.80;0.80;;;15.50;99.90;;;;;;5019661;28;20034;-80
2021/06/06 08:59:18;;;;;;;1.08;0.90;;;15.50;99.90;;;;;;5013615;28;20026;-79
2021/06/06 09:01:53;;;;;;;1.08;0.77;;;15.60;99.90;;;;;;5001514;28;20556;-80
2021/06/06 09:04:28;;;;;;;0.80;0.70;;;15.60;99.90;;;;;;5008251;28;20056;-79
2021/06/06 09:07:00;;;;;;;0.80;0.65;;;15.70;99.90;;;;;;4993546;28;20116;-80
2021/06/06 09:09:42;;;;;;;0.60;0.55;;;15.60;99.90;;;;;;5009476;28;20412;-76
2021/06/06 09:12:13;;;;;;;0.80;0.80;;;15.60;99.90;;;;;;5019605;28;20082;-76
2021/06/06 09:14:41;;;;;;;0.85;0.80;;;15.70;99.90;;;;;;5015512;28;20120;-76
2021/06/06 09:17:09;;;;;;;2.17;0.80;;;15.70;99.90;;;;;;5015464;28;20124;-76
2021/06/06 09:19:44;;;;;;;1.42;0.80;;;15.70;99.90;;;;;;5015079;28;20352;-77
2021/06/06 09:22:11;;;;;;;0.85;0.73;;;15.80;99.90;;;;;;5014824;28;20176;-76
2021/06/06 09:24:42;;;;;;;0.98;0.77;;;15.80;99.90;;;;;;5014982;28;20033;-76
2021/06/06 09:27:14;;;;;;;1.23;1.00;;;15.80;99.90;;;;;;5014629;28;20022;-75
2021/06/06 09:29:42;;;;;;;0.50;0.50;;;15.80;99.90;;;;;;5023822;28;20477;-79
2021/06/06 09:32:19;;;;;;;0.80;0.57;;;16.00;99.90;;;;;;5015693;28;20124;-79
2021/06/06 09:35:26;;;;;;;0.70;0.70;;;16.00;99.90;;;;;;5011249;28;20412;-79
2021/06/06 09:38:21;;;;;;;1.77;0.88;;;16.10;99.90;;;;;;4982444;28;20499;-78
2021/06/06 09:40:49;;;;;;;0.85;0.57;;;16.00;99.90;;;;;;5000637;28;20028;-79
2021/06/06 09:43:26;;;;;;;0.77;0.60;;;16.10;99.90;;;;;;4997414;28;20026;-79
2021/06/06 09:46:04;;;;;;;0.70;0.68;;;16.10;99.90;;;;;;5000215;28;20125;-79
2021/06/06 09:48:30;;;;;;;1.05;0.80;;;16.00;99.90;;;;;;5008106;28;20394;-80
2021/06/06 09:51:11;;;;;;;1.17;0.68;;;16.10;99.90;;;;;;5003808;28;20021;-79
2021/06/06 09:53:39;;;;;;;1.45;0.82;;;16.10;99.90;;;;;;5008923;28;20100;-79
2021/06/06 09:56:06;;;;;;;1.40;0.88;;;16.10;99.90;;;;;;5009561;28;20033;-79
2021/06/06 09:58:37;;;;;;;0.93;0.60;;;16.20;99.90;;;;;;5007417;28;20022;-80
2021/06/06 10:01:25;;;;;;;0.88;0.73;;;16.30;99.90;;;;;;5010582;28;20529;-79
2021/06/06 10:03:57;;;;;;;0.55;0.50;;;16.30;99.90;;;;;;5008509;28;20026;-79
2021/06/06 10:06:28;;;;;;;1.90;0.63;;;16.20;99.90;;;;;;5010509;28;20379;-79
2021/06/06 10:09:17;;;;;;;1.52;0.60;;;16.40;99.90;;;;;;5010498;28;20041;-79
2021/06/06 10:12:01;;;;;;;0.70;0.70;;;16.30;99.90;;;;;;5007927;28;20038;-79
2021/06/06 10:14:34;;;;;;;1.48;0.90;;;16.30;99.90;;;;;;5007664;28;20037;-80
2021/06/06 10:17:05;;;;;;;0.70;0.70;;;16.30;99.90;;;;;;5009277;28;20378;-79
2021/06/06 10:19:36;;;;;;;1.00;0.70;;;16.30;99.90;;;;;;5002133;28;20470;-81
2021/06/06 10:22:13;;;;;;;1.40;0.90;;;16.30;99.90;;;;;;5000797;28;20034;-82
2021/06/06 10:24:57;;;;;;;1.02;0.80;;;16.30;99.90;;;;;;5012540;28;20402;-80
2021/06/06 10:27:32;;;;;;;1.33;0.93;;;16.30;99.90;;;;;;5011596;28;20030;-80
2021/06/06 10:30:06;;;;;;;1.52;0.95;;;16.30;99.90;;;;;;5006405;28;20048;-83
2021/06/06 10:32:37;;;;;;;1.20;0.90;;;16.30;99.90;;;;;;5011373;28;20570;-72
2021/06/06 10:35:12;;;;;;;1.55;0.98;;;16.40;99.90;;;;;;5011077;28;20277;-80
2021/06/06 10:37:40;;;;;;;1.08;0.80;;;16.40;99.90;;;;;;5006741;28;20022;-80
2021/06/06 10:40:24;;;;;;;1.23;1.00;;;16.50;99.90;;;;;;5009799;28;20033;-79
2021/06/06 10:43:01;;;;;;;0.70;0.68;;;16.50;99.90;;;;;;5011267;28;20489;-80
2021/06/06 10:45:33;;;;;;;0.63;0.63;;;16.40;99.90;;;;;;4998612;28;20022;-80
2021/06/06 10:48:16;;;;;;;2.03;0.65;;;16.50;99.90;;;;;;5005456;28;20048;-73
2021/06/06 10:50:45;;;;;;;0.93;0.70;;;16.50;99.90;;;;;;5023959;28;20037;-72
2021/06/06 10:53:18;;;;;;;0.77;0.70;;;16.50;99.90;;;;;;5015465;28;20029;-74
2021/06/06 10:56:00;;;;;;;0.77;0.60;;;16.70;99.90;;;;;;5013548;28;20026;-78
2021/06/06 10:58:48;;;;;;;1.10;0.60;;;16.70;99.90;;;;;;5012469;28;20359;-77
2021/06/06 11:01:19;;;;;;;1.52;0.70;;;16.80;99.90;;;;;;5012587;28;20390;-75
2021/06/06 11:03:47;;;;;;;0.70;0.70;;;16.80;99.90;;;;;;5012665;28;20033;-78
2021/06/06 11:06:29;;;;;;;1.80;0.98;;;16.90;99.90;;;;;;5012419;28;20026;-77
2021/06/06 11:08:55;;;;;;;2.28;0.70;;;16.90;99.90;;;;;;5013371;28;20151;-77
2021/06/06 11:11:23;;;;;;;1.17;0.80;;;17.00;99.90;;;;;;5009218;28;20030;-80
2021/06/06 11:13:51;;;;;;;1.33;0.90;;;16.90;99.90;;;;;;5013598;28;20030;-78
2021/06/06 11:16:16;;;;;;;1.10;0.90;;;16.90;99.90;;;;;;5013629;28;20033;-78
2021/06/06 11:18:54;;;;;;;1.77;0.70;;;16.90;99.90;;;;;;5013544;28;20390;-77
2021/06/06 11:21:41;;;;;;;2.30;0.80;;;16.80;99.90;;;;;;5013848;28;20105;-77
2021/06/06 11:24:47;;;;;;;1.65;0.80;;;16.90;99.90;;;;;;5013959;28;20030;-78
2021/06/06 11:27:17;;;;;;;;;;;16.90;99.90;;;;;;5013737;28;20482;-77
2021/06/06 11:30:06;;;;;;;2.67;1.00;;;17.00;99.90;;;;;;5029154;28;19909;-77
2021/06/06 11:32:41;;;;;;;1.95;0.93;;;17.10;99.90;;;;;;5007692;28;20069;-82
2021/06/06 11:35:35;;;;;;;1.80;0.80;;;17.10;99.90;;;;;;5007462;28;20030;-83
2021/06/06 11:38:25;;;;;;;1.33;1.00;;;17.10;99.90;;;;;;5008534;28;20018;-83
2021/06/06 11:41:05;;;;;;;1.85;0.95;;;17.00;99.90;;;;;;5010334;28;20093;-82
2021/06/06 11:43:35;;;;;;;1.58;0.90;;;17.10;99.90;;;;;;5003406;28;20154;-83
2021/06/06 11:46:16;;;;;;;1.65;1.00;;;17.10;99.90;;;;;;5007267;28;20022;-78
2021/06/06 11:48:56;;;;;;;3.47;1.45;;;17.10;99.90;;;;;;4996793;28;20022;-77
2021/06/06 11:51:45;;;;;;;0.90;0.90;;;17.10;99.90;;;;;;4995780;28;20027;-77
2021/06/06 11:54:29;;;;;;;1.70;0.88;;;17.10;99.90;;;;;;4995874;28;20091;-77
2021/06/06 11:56:59;;;;;;;3.72;1.38;;;17.10;99.90;;;;;;5012214;28;20033;-77
2021/06/06 11:59:43;;;;;;;1.80;0.77;;;17.20;99.90;;;;;;4997290;28;20018;-77
2021/06/06 12:02:22;;;;;;;1.48;1.10;;;17.20;99.90;;;;;;4996905;28;20444;-77
2021/06/06 12:04:48;;;;;;;1.48;0.77;;;17.20;99.90;;;;;;4997269;28;20030;-77
2021/06/06 12:07:30;;;;;;;1.27;0.95;;;17.10;99.90;;;;;;4996781;28;20026;-79
2021/06/06 12:09:58;;;;;;;2.00;1.00;;;17.30;99.90;;;;;;4996855;28;20468;-77
2021/06/06 12:12:49;;;;;;;1.45;0.85;;;17.30;99.90;;;;;;4996958;28;20033;-77
2021/06/06 12:15:26;;;;;;;4.53;2.40;;;17.20;99.90;;;;;;4996844;28;20061;-78
2021/06/06 12:18:12;;;;;;;2.78;1.30;;;17.20;99.90;;;;;;4996862;28;20022;-78
2021/06/06 12:20:50;;;;;;;1.52;1.00;;;17.10;99.90;;;;;;5011673;28;20018;-78
2021/06/06 12:23:15;;;;;;;1.73;1.02;;;17.10;99.90;;;;;;4996846;28;20108;-77
2021/06/06 12:25:41;;;;;;;1.40;0.90;;;17.10;99.90;;;;;;4999557;28;20096;-83
2021/06/06 12:28:14;;;;;;;2.30;1.00;;;17.20;99.90;;;;;;5012999;28;20165;-78
2021/06/06 12:30:45;;;;;;;2.25;1.35;;;17.10;99.90;;;;;;5015259;28;20108;-78
2021/06/06 12:33:11;;;;;;;3.47;2.83;;;17.00;99.90;;;;;;5016380;28;20049;-78
2021/06/06 12:35:44;;;;;;;5.15;4.20;;;17.00;99.90;;;;;;5015562;28;20095;-77
2021/06/06 12:38:12;;;;;;;6.47;3.30;;;17.00;99.90;;;;;;5009113;28;20068;-77
2021/06/06 12:40:39;;;;;;;2.50;1.02;;;16.90;99.90;;;;;;5023351;28;20040;-77
2021/06/06 12:43:06;;;;;;;2.20;1.00;;;17.00;99.90;;;;;;5024135;28;20087;-77
2021/06/06 12:45:36;;;;;;;1.65;0.85;;;17.10;99.90;;;;;;5015338;28;20481;-77
2021/06/06 12:48:09;;;;;;;1.77;0.90;;;17.10;99.90;;;;;;5015191;28;20057;-77
2021/06/06 12:50:36;;;;;;;1.40;1.00;;;17.20;99.90;;;;;;5029876;28;20383;-77
2021/06/06 12:53:25;;;;;;;1.23;0.95;;;17.30;99.90;;;;;;5013710;28;20060;-78
2021/06/06 12:55:52;;;;;;;1.33;0.90;;;17.30;99.90;;;;;;5014724;28;20033;-77
2021/06/06 12:58:17;;;;;;;0.88;0.80;;;17.40;99.90;;;;;;5011450;28;20037;-82
2021/06/06 13:00:47;;;;;;;1.40;0.73;;;17.50;99.90;;;;;;5015454;28;20490;-77
2021/06/06 13:03:18;;;;;;;1.10;0.98;;;17.50;99.90;;;;;;5015496;28;20068;-77
2021/06/06 13:05:47;;;;;;;4.93;1.33;;;17.50;99.90;;;;;;5021266;28;20052;-78
2021/06/06 13:08:30;;;;;;;2.30;1.00;;;17.60;99.90;;;;;;5011366;28;20022;-77